createdAt,value
2019-02-15T00:00:46.494Z,1016.17
2019-02-15T00:01:56.556Z,1016.16
2019-02-15T00:03:06.779Z,1016.17
2019-02-15T00:04:16.813Z,1016.15
2019-02-15T00:05:26.825Z,1016.21
2019-02-15T00:06:37.155Z,1016.18
2019-02-15T00:07:46.650Z,1016.18
2019-02-15T00:08:56.647Z,1016.16
2019-02-15T00:10:06.657Z,1016.18
2019-02-15T00:11:17.132Z,1016.1
2019-02-15T00:12:27.255Z,1016.11
2019-02-15T00:13:37.303Z,1016.1
2019-02-15T00:14:47.350Z,1016.11
2019-02-15T00:15:57.363Z,1016.13
2019-02-15T00:17:07.128Z,1016.11
2019-02-15T00:18:17.120Z,1016.06
2019-02-15T00:19:27.227Z,1016.06
2019-02-15T00:20:37.231Z,1016.04
2019-02-15T00:21:47.482Z,1015.99
2019-02-15T00:22:57.510Z,1016.01
2019-02-15T00:24:07.531Z,1016.03
2019-02-15T00:25:17.281Z,1016.07
2019-02-15T00:26:27.042Z,1016
2019-02-15T00:27:37.065Z,1016.04
2019-02-15T00:28:47.125Z,1015.99
2019-02-15T00:29:57.167Z,1016.05
2019-02-15T00:31:07.698Z,1016.03
2019-02-15T00:32:17.706Z,1016.07
2019-02-15T00:33:27.719Z,1016.13
2019-02-15T00:34:37.516Z,1016.16
2019-02-15T00:35:47.293Z,1016.17
2019-02-15T00:36:57.311Z,1016.14
2019-02-15T00:38:07.316Z,1016.11
2019-02-15T00:39:17.053Z,1016.05
2019-02-15T00:40:27.323Z,1016.04
2019-02-15T00:41:37.324Z,1015.99
2019-02-15T00:42:47.352Z,1015.92
2019-02-15T00:43:57.104Z,1015.93
2019-02-15T00:45:07.106Z,1015.89
2019-02-15T00:46:17.336Z,1015.95
2019-02-15T00:47:27.387Z,1015.98
2019-02-15T00:48:37.483Z,1015.95
2019-02-15T00:49:47.244Z,1015.99
2019-02-15T00:50:56.996Z,1015.94
2019-02-15T00:52:06.492Z,1015.88
2019-02-15T00:53:16.512Z,1015.91
2019-02-15T00:54:26.541Z,1015.87
2019-02-15T00:55:36.306Z,1015.85
2019-02-15T00:56:46.046Z,1015.84
2019-02-15T00:57:55.811Z,1015.87
2019-02-15T00:59:06.029Z,1015.86
2019-02-15T01:00:15.832Z,1015.93
2019-02-15T01:01:25.887Z,1015.91
2019-02-15T01:02:35.883Z,1015.97
2019-02-15T01:03:45.939Z,1015.96
2019-02-15T01:04:55.674Z,1015.92
2019-02-15T01:06:05.770Z,1015.95
2019-02-15T01:07:15.839Z,1015.94
2019-02-15T01:08:25.822Z,1015.95
2019-02-15T01:09:35.922Z,1015.99
2019-02-15T01:10:45.940Z,1015.99
2019-02-15T01:11:55.783Z,1015.94
2019-02-15T01:13:06.152Z,1015.97
2019-02-15T01:14:16.208Z,1016
2019-02-15T01:15:26.292Z,1016.05
2019-02-15T01:16:36.425Z,1016.06
2019-02-15T01:17:46.810Z,1016.09
2019-02-15T01:18:56.900Z,1016.1
2019-02-15T01:20:06.959Z,1016.06
2019-02-15T01:21:17.012Z,1016.02
2019-02-15T01:22:27.073Z,1016.01
2019-02-15T01:23:37.157Z,1016.01
2019-02-15T01:24:47.209Z,1015.99
2019-02-15T01:25:57.263Z,1015.96
2019-02-15T01:27:07.095Z,1016
2019-02-15T01:28:16.949Z,1016.03
2019-02-15T01:29:27.006Z,1016.07
2019-02-15T01:30:37.119Z,1016.08
2019-02-15T01:31:47.172Z,1016.13
2019-02-15T01:32:57.276Z,1016.13
2019-02-15T01:34:07.350Z,1016.09
2019-02-15T01:35:17.223Z,1016.07
2019-02-15T01:36:27.505Z,1016.07
2019-02-15T01:37:37.616Z,1016.03
2019-02-15T01:38:47.652Z,1016.06
2019-02-15T01:39:57.957Z,1016.03
2019-02-15T01:41:07.785Z,1015.99
2019-02-15T01:42:18.117Z,1015.98
2019-02-15T01:43:28.187Z,1016
2019-02-15T01:44:45.641Z,1016
2019-02-15T01:45:55.467Z,1015.94
2019-02-15T01:47:05.658Z,1015.93
2019-02-15T01:48:15.744Z,1015.93
2019-02-15T01:49:25.647Z,1016
2019-02-15T01:50:36.005Z,1015.94
2019-02-15T01:51:46.068Z,1015.94
2019-02-15T01:52:56.412Z,1015.86
2019-02-15T01:54:06.702Z,1015.87
2019-02-15T01:55:16.776Z,1015.89
2019-02-15T01:56:26.855Z,1015.88
2019-02-15T01:57:36.670Z,1015.87
2019-02-15T01:58:46.741Z,1015.93
2019-02-15T01:59:56.853Z,1015.92
2019-02-15T02:01:08.461Z,1015.91
2019-02-15T02:02:18.800Z,1015.85
2019-02-15T02:03:29.122Z,1015.82
2019-02-15T02:04:39.191Z,1015.79
2019-02-15T02:05:49.353Z,1015.82
2019-02-15T02:06:59.852Z,1015.8
2019-02-15T02:08:09.918Z,1015.78
2019-02-15T02:09:20.102Z,1015.78
2019-02-15T02:10:30.273Z,1015.81
2019-02-15T02:11:40.092Z,1015.78
2019-02-15T02:12:50.151Z,1015.78
2019-02-15T02:13:59.950Z,1015.75
2019-02-15T02:15:10.024Z,1015.67
2019-02-15T02:16:20.323Z,1015.67
2019-02-15T02:17:30.159Z,1015.66
2019-02-15T02:18:40.274Z,1015.68
2019-02-15T02:19:50.139Z,1015.65
2019-02-15T02:21:00.292Z,1015.61
2019-02-15T02:22:10.142Z,1015.6
2019-02-15T02:23:20.275Z,1015.61
2019-02-15T02:24:30.408Z,1015.62
2019-02-15T02:25:40.532Z,1015.63
2019-02-15T02:26:50.383Z,1015.63
2019-02-15T02:28:01.244Z,1015.59
2019-02-15T02:29:11.284Z,1015.6
2019-02-15T02:30:21.397Z,1015.55
2019-02-15T02:31:31.619Z,1015.47
2019-02-15T02:32:41.718Z,1015.46
2019-02-15T02:33:51.872Z,1015.45
2019-02-15T02:35:01.729Z,1015.49
2019-02-15T02:36:11.780Z,1015.45
2019-02-15T02:37:21.898Z,1015.51
2019-02-15T02:38:31.988Z,1015.46
2019-02-15T02:39:42.070Z,1015.48
2019-02-15T02:40:52.219Z,1015.52
2019-02-15T02:42:02.695Z,1015.49
2019-02-15T02:43:12.814Z,1015.42
2019-02-15T02:44:23.083Z,1015.45
2019-02-15T02:45:33.179Z,1015.39
2019-02-15T02:46:43.270Z,1015.45
2019-02-15T02:47:53.100Z,1015.46
2019-02-15T02:49:05.946Z,1015.45
2019-02-15T02:50:16.065Z,1015.43
2019-02-15T02:51:26.197Z,1015.46
2019-02-15T02:52:36.252Z,1015.38
2019-02-15T02:53:46.532Z,1015.37
2019-02-15T02:54:56.830Z,1015.38
2019-02-15T02:56:07.220Z,1015.36
2019-02-15T02:57:17.034Z,1015.46
2019-02-15T02:58:26.839Z,1015.47
2019-02-15T02:59:36.915Z,1015.45
2019-02-15T03:00:47.060Z,1015.47
2019-02-15T03:01:57.126Z,1015.46
2019-02-15T03:33:56.750Z,1015.45
2019-02-15T03:35:06.836Z,1015.43
2019-02-15T03:36:17.003Z,1015.48
2019-02-15T03:37:27.172Z,1015.4
2019-02-15T03:38:36.971Z,1015.42
2019-02-15T03:39:46.853Z,1015.41
2019-02-15T03:40:56.932Z,1015.39
2019-02-15T03:42:07.004Z,1015.41
2019-02-15T03:43:17.072Z,1015.44
2019-02-15T03:44:27.151Z,1015.38
2019-02-15T03:45:37.219Z,1015.4
2019-02-15T03:46:47.360Z,1015.41
2019-02-15T03:47:57.872Z,1015.43
2019-02-15T03:49:08.023Z,1015.43
2019-02-15T03:50:18.095Z,1015.48
2019-02-15T03:51:27.920Z,1015.46
2019-02-15T03:52:38.237Z,1015.45
2019-02-15T03:53:48.368Z,1015.47
2019-02-15T03:54:58.442Z,1015.46
2019-02-15T03:56:08.515Z,1015.41
2019-02-15T03:57:18.621Z,1015.44
2019-02-15T03:58:28.915Z,1015.41
2019-02-15T03:59:39.207Z,1015.47
2019-02-15T04:00:49.506Z,1015.48
2019-02-15T04:01:59.574Z,1015.52
2019-02-15T04:03:09.756Z,1015.52
2019-02-15T04:04:19.852Z,1015.54
2019-02-15T04:05:29.914Z,1015.49
2019-02-15T04:06:39.978Z,1015.49
2019-02-15T04:07:50.167Z,1015.47
2019-02-15T04:09:02.420Z,1015.49
2019-02-15T04:10:12.242Z,1015.48
2019-02-15T04:11:21.792Z,1015.52
2019-02-15T04:12:32.370Z,1015.47
2019-02-15T04:13:42.548Z,1015.5
2019-02-15T04:14:52.662Z,1015.48
2019-02-15T04:16:02.552Z,1015.43
2019-02-15T04:17:12.385Z,1015.42
2019-02-15T04:18:22.469Z,1015.44
2019-02-15T04:19:32.298Z,1015.48
2019-02-15T04:20:42.425Z,1015.46
2019-02-15T04:21:52.791Z,1015.44
2019-02-15T04:23:02.861Z,1015.42
2019-02-15T04:24:13.531Z,1015.41
2019-02-15T04:25:23.737Z,1015.48
2019-02-15T04:26:34.097Z,1015.44
2019-02-15T04:27:44.267Z,1015.43
2019-02-15T04:28:54.355Z,1015.36
2019-02-15T04:30:04.435Z,1015.35
2019-02-15T04:31:14.259Z,1015.31
2019-02-15T04:32:24.641Z,1015.35
2019-02-15T04:33:34.455Z,1015.32
2019-02-15T04:34:44.579Z,1015.33
2019-02-15T04:35:54.861Z,1015.27
2019-02-15T04:37:05.233Z,1015.26
2019-02-15T04:38:15.353Z,1015.35
2019-02-15T04:39:25.430Z,1015.36
2019-02-15T04:40:35.490Z,1015.32
2019-02-15T04:41:45.640Z,1015.33
2019-02-15T04:42:55.716Z,1015.33
2019-02-15T04:44:08.213Z,1015.36
2019-02-15T04:45:18.734Z,1015.41
2019-02-15T04:46:28.574Z,1015.39
2019-02-15T04:47:38.650Z,1015.4
2019-02-15T04:48:48.786Z,1015.43
2019-02-15T04:49:58.980Z,1015.41
2019-02-15T04:51:09.197Z,1015.42
2019-02-15T04:52:19.303Z,1015.42
2019-02-15T04:53:29.350Z,1015.43
2019-02-15T04:54:39.455Z,1015.39
2019-02-15T04:55:49.784Z,1015.47
2019-02-15T04:56:59.835Z,1015.48
2019-02-15T04:58:09.636Z,1015.51
2019-02-15T04:59:19.818Z,1015.49
2019-02-15T05:00:29.867Z,1015.5
2019-02-15T05:01:39.999Z,1015.55
2019-02-15T05:02:50.076Z,1015.53
2019-02-15T05:04:00.304Z,1015.51
2019-02-15T05:05:10.116Z,1015.51
2019-02-15T05:06:20.198Z,1015.51
2019-02-15T05:07:30.310Z,1015.5
2019-02-15T05:08:40.517Z,1015.53
2019-02-15T05:09:50.631Z,1015.5
2019-02-15T05:11:01.050Z,1015.52
2019-02-15T05:12:11.625Z,1015.48
2019-02-15T05:13:21.429Z,1015.48
2019-02-15T05:14:31.245Z,1015.52
2019-02-15T05:15:40.811Z,1015.5
2019-02-15T05:16:51.030Z,1015.53
2019-02-15T05:18:02.197Z,1015.54
2019-02-15T05:19:12.291Z,1015.51
2019-02-15T05:20:21.873Z,1015.54
2019-02-15T05:21:31.980Z,1015.52
2019-02-15T05:22:42.125Z,1015.6
2019-02-15T05:23:52.245Z,1015.6
2019-02-15T05:25:02.408Z,1015.64
2019-02-15T05:26:12.504Z,1015.65
2019-02-15T05:27:22.566Z,1015.62
2019-02-15T05:28:32.657Z,1015.64
2019-02-15T05:29:42.765Z,1015.65
2019-02-15T05:30:52.875Z,1015.65
2019-02-15T05:32:02.431Z,1015.64
2019-02-15T05:33:12.634Z,1015.61
2019-02-15T05:34:22.794Z,1015.69
2019-02-15T05:35:32.859Z,1015.65
2019-02-15T05:36:42.397Z,1015.66
2019-02-15T05:37:52.527Z,1015.68
2019-02-15T05:39:02.346Z,1015.66
2019-02-15T05:40:12.432Z,1015.68
2019-02-15T05:41:22.538Z,1015.68
2019-02-15T05:42:32.597Z,1015.68
2019-02-15T05:43:42.671Z,1015.76
2019-02-15T05:45:02.888Z,1015.78
2019-02-15T05:46:12.825Z,1015.76
2019-02-15T05:47:22.732Z,1015.77
2019-02-15T05:48:32.542Z,1015.75
2019-02-15T05:49:42.359Z,1015.82
2019-02-15T05:50:52.513Z,1015.83
2019-02-15T05:52:02.936Z,1015.89
2019-02-15T05:53:13.053Z,1015.88
2019-02-15T05:54:23.181Z,1015.83
2019-02-15T05:55:32.993Z,1015.9
2019-02-15T05:56:42.804Z,1015.85
2019-02-15T05:57:52.629Z,1015.84
2019-02-15T05:59:03.013Z,1015.91
2019-02-15T06:00:12.589Z,1015.88
2019-02-15T06:01:22.416Z,1015.87
2019-02-15T06:02:32.665Z,1015.87
2019-02-15T06:03:42.474Z,1015.91
2019-02-15T06:04:52.632Z,1015.93
2019-02-15T06:06:03.212Z,1015.91
2019-02-15T06:07:12.801Z,1015.9
2019-02-15T06:08:23.352Z,1015.9
2019-02-15T06:09:34.322Z,1015.92
2019-02-15T06:10:44.393Z,1015.92
2019-02-15T06:11:54.756Z,1015.92
2019-02-15T06:13:04.880Z,1015.91
2019-02-15T06:14:14.929Z,1015.93
2019-02-15T06:15:24.989Z,1015.89
2019-02-15T06:16:35.074Z,1015.88
2019-02-15T06:17:45.374Z,1015.9
2019-02-15T06:18:55.680Z,1015.95
2019-02-15T06:20:06.064Z,1015.92
2019-02-15T06:21:16.229Z,1015.95
2019-02-15T06:22:26.087Z,1016.02
2019-02-15T06:23:36.151Z,1015.95
2019-02-15T06:24:46.317Z,1016.01
2019-02-15T06:25:56.363Z,1016.06
2019-02-15T06:27:08.270Z,1016.05
2019-02-15T06:28:18.091Z,1016.08
2019-02-15T06:29:27.977Z,1016.11
2019-02-15T06:30:38.060Z,1016.15
2019-02-15T06:31:47.634Z,1016.13
2019-02-15T06:32:57.695Z,1016.17
2019-02-15T06:34:07.779Z,1016.25
2019-02-15T06:35:17.832Z,1016.25
2019-02-15T06:36:27.643Z,1016.23
2019-02-15T06:37:37.711Z,1016.21
2019-02-15T06:38:48.140Z,1016.23
2019-02-15T06:39:58.250Z,1016.28
2019-02-15T06:41:08.401Z,1016.23
2019-02-15T06:42:20.307Z,1016.28
2019-02-15T06:43:30.124Z,1016.3
2019-02-15T06:44:40.214Z,1016.28
2019-02-15T06:45:50.303Z,1016.29
2019-02-15T06:47:03.168Z,1016.28
2019-02-15T06:48:13.249Z,1016.27
2019-02-15T06:49:23.326Z,1016.33
2019-02-15T06:50:33.129Z,1016.33
2019-02-15T06:51:43.202Z,1016.34
2019-02-15T06:52:53.263Z,1016.36
2019-02-15T06:54:04.338Z,1016.37
2019-02-15T06:55:14.446Z,1016.38
2019-02-15T06:56:24.784Z,1016.42
2019-02-15T06:57:34.590Z,1016.43
2019-02-15T06:58:45.736Z,1016.41
2019-02-15T06:59:57.200Z,1016.44
2019-02-15T07:01:07.767Z,1016.44
2019-02-15T07:02:17.302Z,1016.5
2019-02-15T07:03:27.626Z,1016.5
2019-02-15T07:06:02.129Z,1016.47
2019-02-15T07:07:11.943Z,1016.47
2019-02-15T07:08:22.026Z,1016.49
2019-02-15T07:09:32.190Z,1016.45
2019-02-15T07:10:42.275Z,1016.43
2019-02-15T07:11:52.378Z,1016.52
2019-02-15T07:13:02.442Z,1016.51
2019-02-15T07:14:12.575Z,1016.55
2019-02-15T07:15:23.912Z,1016.56
2019-02-15T07:16:40.985Z,1016.55
2019-02-15T07:17:51.066Z,1016.57
2019-02-15T07:19:02.326Z,1016.59
2019-02-15T07:20:12.389Z,1016.61
2019-02-15T07:21:22.444Z,1016.63
2019-02-15T07:22:32.452Z,1016.64
2019-02-15T07:23:42.746Z,1016.66
2019-02-15T07:24:53.040Z,1016.62
2019-02-15T07:26:02.854Z,1016.65
2019-02-15T07:27:12.895Z,1016.72
2019-02-15T07:28:23.046Z,1016.77
2019-02-15T07:29:32.916Z,1016.72
2019-02-15T07:30:43.047Z,1016.73
2019-02-15T07:31:53.327Z,1016.74
2019-02-15T07:33:04.526Z,1016.7
2019-02-15T07:34:14.880Z,1016.67
2019-02-15T07:35:24.709Z,1016.62
2019-02-15T07:36:34.726Z,1016.63
2019-02-15T07:37:44.807Z,1016.5
2019-02-15T07:38:55.116Z,1016.55
2019-02-15T07:40:05.188Z,1016.46
2019-02-15T07:41:15.311Z,1016.5
2019-02-15T07:42:25.382Z,1016.48
2019-02-15T07:43:34.999Z,1016.46
2019-02-15T07:44:45.102Z,1016.5
2019-02-15T07:45:54.952Z,1016.53
2019-02-15T07:47:05.014Z,1016.56
2019-02-15T07:48:14.841Z,1016.49
2019-02-15T07:49:26.749Z,1016.56
2019-02-15T07:50:36.821Z,1016.58
2019-02-15T07:51:47.100Z,1016.56
2019-02-15T07:52:56.933Z,1016.57
2019-02-15T07:54:07.007Z,1016.58
2019-02-15T07:55:17.075Z,1016.48
2019-02-15T07:56:26.894Z,1016.53
2019-02-15T07:57:36.965Z,1016.54
2019-02-15T07:58:47.021Z,1016.53
2019-02-15T07:59:57.314Z,1016.54
2019-02-15T08:01:08.015Z,1016.56
2019-02-15T08:02:17.882Z,1016.5
2019-02-15T08:03:27.927Z,1016.52
2019-02-15T08:04:37.724Z,1016.52
2019-02-15T08:05:47.918Z,1016.57
2019-02-15T08:06:58.006Z,1016.61
2019-02-15T08:08:08.072Z,1016.73
2019-02-15T08:09:18.121Z,1016.81
2019-02-15T08:10:28.196Z,1016.76
2019-02-15T08:11:40.066Z,1016.91
2019-02-15T08:12:50.141Z,1016.87
2019-02-15T08:14:00.454Z,1016.91
2019-02-15T08:15:20.081Z,1016.93
2019-02-15T08:16:38.851Z,1016.97
2019-02-15T08:17:49.421Z,1016.98
2019-02-15T08:18:59.238Z,1016.87
2019-02-15T08:20:09.984Z,1016.88
2019-02-15T08:21:20.161Z,1016.82
2019-02-15T08:22:30.233Z,1016.79
2019-02-15T08:23:40.296Z,1016.79
2019-02-15T08:24:50.854Z,1016.78
2019-02-15T08:26:03.283Z,1016.78
2019-02-15T08:27:13.450Z,1016.82
2019-02-15T08:28:23.528Z,1016.82
2019-02-15T08:29:33.590Z,1016.78
2019-02-15T08:30:43.659Z,1016.8
2019-02-15T08:31:53.809Z,1016.86
2019-02-15T08:33:03.866Z,1016.89
2019-02-15T08:34:13.659Z,1016.99
2019-02-15T08:35:23.727Z,1016.99
2019-02-15T08:36:33.808Z,1017.06
2019-02-15T08:37:43.864Z,1017.06
2019-02-15T08:38:53.675Z,1017.08
2019-02-15T08:40:06.080Z,1017.1
2019-02-15T08:41:16.196Z,1017.04
2019-02-15T08:42:25.997Z,1017.02
2019-02-15T08:43:35.806Z,1017.02
2019-02-15T08:44:45.878Z,1017.03
2019-02-15T08:46:00.675Z,1017.07
2019-02-15T08:47:11.872Z,1017.13
2019-02-15T08:48:22.181Z,1017.09
2019-02-15T08:49:32.061Z,1017.05
2019-02-15T08:50:41.925Z,1017.01
2019-02-15T08:51:51.733Z,1016.97
2019-02-15T08:53:01.029Z,1016.88
2019-02-15T08:54:10.869Z,1016.7
2019-02-15T08:55:20.944Z,1016.58
2019-02-15T08:56:31.259Z,1016.63
2019-02-15T08:57:41.339Z,1016.62
2019-02-15T08:58:51.424Z,1016.7
2019-02-15T09:00:03.778Z,1016.79
2019-02-15T09:01:13.895Z,1016.79
2019-02-15T09:02:23.982Z,1016.83
2019-02-15T09:03:34.128Z,1016.82
2019-02-15T09:04:44.639Z,1016.86
2019-02-15T09:05:54.927Z,1016.75
2019-02-15T09:07:05.001Z,1016.77
2019-02-15T09:08:15.061Z,1016.76
2019-02-15T09:09:25.132Z,1016.81
2019-02-15T09:10:35.230Z,1016.86
2019-02-15T09:11:45.171Z,1016.93
2019-02-15T09:12:55.704Z,1016.94
2019-02-15T09:14:06.285Z,1016.96
2019-02-15T09:15:16.380Z,1016.95
2019-02-15T09:16:26.446Z,1017
2019-02-15T09:17:36.530Z,1017.02
2019-02-15T09:18:46.626Z,1017.04
2019-02-15T09:19:56.723Z,1017.04
2019-02-15T09:21:07.730Z,1017.02
2019-02-15T09:22:17.780Z,1017
2019-02-15T09:23:27.886Z,1017.01
2019-02-15T09:24:38.111Z,1017.08
2019-02-15T09:25:48.186Z,1017.03
2019-02-15T09:26:58.051Z,1017.08
2019-02-15T09:28:08.121Z,1017.08
2019-02-15T09:29:18.182Z,1017.1
2019-02-15T09:30:28.324Z,1017.1
2019-02-15T09:31:38.598Z,1017.12
2019-02-15T09:32:48.407Z,1017.19
2019-02-15T09:33:58.545Z,1017.17
2019-02-15T09:35:08.647Z,1017.21
2019-02-15T09:36:18.726Z,1017.19
2019-02-15T09:37:28.535Z,1017.29
2019-02-15T09:38:38.714Z,1017.15
2019-02-15T09:39:48.804Z,1017.18
2019-02-15T09:40:58.649Z,1017.15
2019-02-15T09:42:11.620Z,1017.12
2019-02-15T09:43:21.698Z,1017.09
2019-02-15T09:44:31.521Z,1017.06
2019-02-15T09:45:41.587Z,1017.08
2019-02-15T09:46:51.423Z,1017.1
2019-02-15T09:48:03.629Z,1017.14
2019-02-15T09:49:13.430Z,1017.12
2019-02-15T09:50:27.167Z,1017.12
2019-02-15T09:51:37.050Z,1017.15
2019-02-15T09:52:47.177Z,1017.19
2019-02-15T09:53:57.537Z,1017.17
2019-02-15T09:55:08.159Z,1017.18
2019-02-15T09:56:18.233Z,1017.15
2019-02-15T09:57:28.539Z,1017.16
2019-02-15T09:58:38.849Z,1017.23
2019-02-15T09:59:48.929Z,1017.24
2019-02-15T10:00:58.982Z,1017.23
2019-02-15T10:02:09.062Z,1017.27
2019-02-15T10:03:19.125Z,1017.3
2019-02-15T10:04:29.485Z,1017.3
2019-02-15T10:05:39.545Z,1017.29
2019-02-15T10:06:49.631Z,1017.24
2019-02-15T10:07:59.799Z,1017.21
2019-02-15T10:09:09.903Z,1017.18
2019-02-15T10:10:20.238Z,1017.15
2019-02-15T10:11:30.600Z,1017.17
2019-02-15T10:12:40.428Z,1017.13
2019-02-15T10:13:51.103Z,1017.09
2019-02-15T10:15:01.274Z,1017.08
2019-02-15T10:16:11.549Z,1017.03
2019-02-15T10:17:30.341Z,1017.06
2019-02-15T10:18:40.843Z,1017.01
2019-02-15T10:19:51.827Z,1017.02
2019-02-15T10:21:01.999Z,1017.03
2019-02-15T10:22:12.349Z,1017.08
2019-02-15T10:23:24.367Z,1017.05
2019-02-15T10:24:35.162Z,1017.02
2019-02-15T10:25:45.733Z,1017.05
2019-02-15T10:26:56.322Z,1017.08
2019-02-15T10:28:07.201Z,1017.02
2019-02-15T10:29:18.286Z,1017.08
2019-02-15T10:30:28.442Z,1017.08
2019-02-15T10:31:38.750Z,1017.08
2019-02-15T10:32:49.086Z,1017.07
2019-02-15T10:33:59.155Z,1017.06
2019-02-15T10:35:09.015Z,1017.07
2019-02-15T10:36:19.139Z,1017.11
2019-02-15T10:37:29.242Z,1017.04
2019-02-15T10:38:39.330Z,1017.06
2019-02-15T10:39:49.400Z,1017.06
2019-02-15T10:40:59.482Z,1017.06
2019-02-15T10:42:09.649Z,1017.03
2019-02-15T10:43:19.497Z,1017.02
2019-02-15T10:44:29.311Z,1017.07
2019-02-15T10:45:39.644Z,1017.1
2019-02-15T10:46:49.720Z,1017.07
2019-02-15T10:47:59.613Z,1017.05
2019-02-15T10:49:11.325Z,1017.06
2019-02-15T10:50:21.401Z,1017.09
2019-02-15T10:51:31.464Z,1017.1
2019-02-15T10:52:41.534Z,1017.11
2019-02-15T10:53:51.934Z,1017.08
2019-02-15T10:55:02.804Z,1017.08
2019-02-15T10:56:12.899Z,1017.09
2019-02-15T10:57:22.983Z,1017.08
2019-02-15T10:58:33.049Z,1017.04
2019-02-15T10:59:43.399Z,1017.06
2019-02-15T11:00:53.496Z,1017.03
2019-02-15T11:02:03.779Z,1016.94
2019-02-15T11:03:13.853Z,1016.92
2019-02-15T11:04:23.983Z,1016.93
2019-02-15T11:05:34.035Z,1016.92
2019-02-15T11:06:44.098Z,1016.91
2019-02-15T11:07:54.128Z,1016.92
2019-02-15T11:09:04.207Z,1016.87
2019-02-15T11:10:14.281Z,1016.85
2019-02-15T11:11:24.374Z,1016.85
2019-02-15T11:12:34.445Z,1016.82
2019-02-15T11:13:44.753Z,1016.77
2019-02-15T11:14:54.877Z,1016.79
2019-02-15T11:16:05.870Z,1016.8
2019-02-15T11:17:15.682Z,1016.81
2019-02-15T11:18:25.754Z,1016.81
2019-02-15T11:19:35.855Z,1016.81
2019-02-15T11:20:45.680Z,1016.79
2019-02-15T11:21:55.754Z,1016.8
2019-02-15T11:23:08.515Z,1016.75
2019-02-15T11:24:18.337Z,1016.76
2019-02-15T11:25:28.627Z,1016.75
2019-02-15T11:26:38.472Z,1016.68
2019-02-15T11:27:48.737Z,1016.76
2019-02-15T11:29:03.141Z,1016.73
2019-02-15T11:30:13.182Z,1016.75
2019-02-15T11:31:23.913Z,1016.71
2019-02-15T11:32:34.507Z,1016.75
2019-02-15T11:33:47.230Z,1016.78
2019-02-15T11:34:57.935Z,1016.76
2019-02-15T11:36:09.998Z,1016.7
2019-02-15T11:37:20.943Z,1016.71
2019-02-15T11:38:31.643Z,1016.75
2019-02-15T11:39:42.081Z,1016.64
2019-02-15T11:40:53.858Z,1016.71
2019-02-15T11:42:14.207Z,1016.69
2019-02-15T11:43:24.566Z,1016.68
2019-02-15T11:44:34.802Z,1016.65
2019-02-15T11:45:45.097Z,1016.71
2019-02-15T11:46:56.833Z,1016.7
2019-02-15T11:48:07.929Z,1016.67
2019-02-15T11:49:18.008Z,1016.69
2019-02-15T11:50:27.582Z,1016.71
2019-02-15T11:51:37.440Z,1016.71
2019-02-15T11:52:47.258Z,1016.69
2019-02-15T11:53:58.659Z,1016.7
2019-02-15T11:55:10.089Z,1016.74
2019-02-15T11:56:19.946Z,1016.72
2019-02-15T11:57:29.772Z,1016.74
2019-02-15T11:58:39.599Z,1016.74
2019-02-15T11:59:49.729Z,1016.69
2019-02-15T12:00:59.904Z,1016.69
2019-02-15T12:02:10.247Z,1016.7
2019-02-15T12:03:20.542Z,1016.67
2019-02-15T12:04:30.661Z,1016.65
2019-02-15T12:05:40.730Z,1016.65
2019-02-15T12:06:50.823Z,1016.64
2019-02-15T12:08:03.453Z,1016.64
2019-02-15T12:09:13.300Z,1016.61
2019-02-15T12:10:24.367Z,1016.65
2019-02-15T12:11:34.544Z,1016.6
2019-02-15T12:12:44.594Z,1016.6
2019-02-15T12:13:54.709Z,1016.63
2019-02-15T12:15:05.254Z,1016.57
2019-02-15T12:16:15.336Z,1016.55
2019-02-15T12:17:25.644Z,1016.56
2019-02-15T12:18:35.736Z,1016.53
2019-02-15T12:19:45.800Z,1016.49
2019-02-15T12:20:55.612Z,1016.49
2019-02-15T12:22:05.714Z,1016.51
2019-02-15T12:23:15.783Z,1016.51
2019-02-15T12:24:25.889Z,1016.49
2019-02-15T12:25:35.717Z,1016.47
2019-02-15T12:26:45.554Z,1016.44
2019-02-15T12:27:55.649Z,1016.43
2019-02-15T12:29:07.000Z,1016.4
2019-02-15T12:30:17.287Z,1016.38
2019-02-15T12:31:27.462Z,1016.37
2019-02-15T12:32:37.260Z,1016.37
2019-02-15T12:33:47.041Z,1016.3
2019-02-15T12:34:57.119Z,1016.26
2019-02-15T12:36:07.252Z,1016.28
2019-02-15T12:37:17.376Z,1016.26
2019-02-15T12:38:27.509Z,1016.24
2019-02-15T12:39:37.611Z,1016.21
2019-02-15T12:40:48.083Z,1016.2
2019-02-15T12:41:58.195Z,1016.19
2019-02-15T12:43:08.574Z,1016.19
2019-02-15T12:44:18.768Z,1016.2
2019-02-15T12:45:28.872Z,1016.19
2019-02-15T12:46:38.767Z,1016.19
2019-02-15T12:47:48.882Z,1016.15
2019-02-15T12:48:58.461Z,1016.04
2019-02-15T12:50:11.211Z,1016.08
2019-02-15T12:51:21.285Z,1016.08
2019-02-15T12:52:31.352Z,1015.99
2019-02-15T12:53:41.513Z,1016.01
2019-02-15T12:54:52.038Z,1016
2019-02-15T12:56:04.424Z,1015.98
2019-02-15T12:57:14.505Z,1015.96
2019-02-15T12:58:24.369Z,1015.91
2019-02-15T12:59:35.141Z,1015.9
2019-02-15T13:00:45.303Z,1015.84
2019-02-15T13:01:56.289Z,1015.82
2019-02-15T13:03:06.345Z,1015.82
2019-02-15T13:04:16.654Z,1015.76
2019-02-15T13:05:26.817Z,1015.8
2019-02-15T13:06:36.922Z,1015.76
2019-02-15T13:07:49.880Z,1015.73
2019-02-15T13:08:59.730Z,1015.75
2019-02-15T13:10:11.407Z,1015.75
2019-02-15T13:11:21.661Z,1015.73
2019-02-15T13:12:31.494Z,1015.69
2019-02-15T13:13:41.637Z,1015.62
2019-02-15T13:14:51.768Z,1015.66
2019-02-15T13:16:03.301Z,1015.59
2019-02-15T13:17:13.426Z,1015.59
2019-02-15T13:18:31.831Z,1015.57
2019-02-15T13:19:42.190Z,1015.52
2019-02-15T13:20:52.331Z,1015.52
2019-02-15T13:22:02.466Z,1015.54
2019-02-15T13:23:12.653Z,1015.56
2019-02-15T13:24:22.755Z,1015.5
2019-02-15T13:25:36.667Z,1015.49
2019-02-15T13:26:46.802Z,1015.45
2019-02-15T13:27:56.882Z,1015.53
2019-02-15T13:29:08.728Z,1015.5
2019-02-15T13:30:18.857Z,1015.53
2019-02-15T13:31:29.204Z,1015.51
2019-02-15T13:32:39.306Z,1015.52
2019-02-15T13:33:49.380Z,1015.54
2019-02-15T13:35:00.428Z,1015.52
2019-02-15T13:36:10.254Z,1015.49
2019-02-15T13:37:20.639Z,1015.49
2019-02-15T13:38:30.947Z,1015.51
2019-02-15T13:39:40.801Z,1015.5
2019-02-15T13:40:50.931Z,1015.54
2019-02-15T13:42:00.493Z,1015.5
2019-02-15T13:43:10.583Z,1015.5
2019-02-15T13:44:20.440Z,1015.48
2019-02-15T13:45:31.018Z,1015.5
2019-02-15T13:46:41.541Z,1015.47
2019-02-15T13:47:51.627Z,1015.46
2019-02-15T13:49:03.855Z,1015.46
2019-02-15T13:50:16.203Z,1015.44
2019-02-15T13:51:27.755Z,1015.48
2019-02-15T13:52:37.887Z,1015.43
2019-02-15T13:53:48.200Z,1015.48
2019-02-15T13:54:58.300Z,1015.44
2019-02-15T13:56:08.410Z,1015.45
2019-02-15T13:57:18.256Z,1015.39
2019-02-15T13:58:28.391Z,1015.44
2019-02-15T13:59:39.106Z,1015.38
2019-02-15T14:00:49.470Z,1015.36
2019-02-15T14:01:59.592Z,1015.36
2019-02-15T14:03:09.427Z,1015.38
2019-02-15T14:04:19.775Z,1015.35
2019-02-15T14:05:29.929Z,1015.31
2019-02-15T14:06:39.812Z,1015.31
2019-02-15T14:07:49.971Z,1015.27
2019-02-15T14:09:00.119Z,1015.27
2019-02-15T14:10:10.085Z,1015.27
2019-02-15T14:11:20.527Z,1015.2
2019-02-15T14:12:30.642Z,1015.18
2019-02-15T14:13:40.735Z,1015.2
2019-02-15T14:14:50.981Z,1015.17
2019-02-15T14:16:02.384Z,1015.19
2019-02-15T14:17:13.671Z,1015.15
2019-02-15T14:18:25.814Z,1015.18
2019-02-15T14:19:37.709Z,1015.17
2019-02-15T14:20:47.830Z,1015.17
2019-02-15T14:21:58.347Z,1015.11
2019-02-15T14:23:08.810Z,1015.11
2019-02-15T14:27:20.761Z,1015.15
2019-02-15T14:28:30.871Z,1015.14
2019-02-15T14:29:40.977Z,1015.12
2019-02-15T14:30:50.940Z,1015.12
2019-02-15T14:32:01.175Z,1015.1
2019-02-15T14:33:11.458Z,1015.11
2019-02-15T14:36:44.775Z,1015.1
2019-02-15T14:37:54.375Z,1015.11
2019-02-15T14:39:05.483Z,1015.09
2019-02-15T14:40:15.564Z,1015.06
2019-02-15T14:41:25.641Z,1015.11
2019-02-15T14:42:35.760Z,1015.06
2019-02-15T14:43:45.641Z,1015.01
2019-02-15T14:44:55.991Z,1015.04
2019-02-15T14:46:07.726Z,1015.02
2019-02-15T14:47:17.792Z,1015
2019-02-15T14:48:27.880Z,1014.96
2019-02-15T14:49:37.706Z,1014.93
2019-02-15T14:50:47.584Z,1014.98
2019-02-15T14:51:57.658Z,1014.98